Airfield :
LOGIN :

Register | Disclaimer

   EN    FR    IT 

 










Legend :    VFR   Marginal VFR   IFR   Intensive IFR   Very Intensive IFR
Visi :
Ceiling :
>= 8 km
>= 3000ft
5 to 8 km
1000 to 3000 ft
1500m to 5 km
500 to 1000 ft
800 to 1500m
200 to 500 ft
< 800m
< 200 ft
Symbols :   Thunderstorms  Fog  Heavy snow  Heavy precipitations  Wind > 20 kt
SIGMETs :     Misc.  Thunderstorms  Icing  Turbulence  Mountain Waves  Volcanic Ashes






- Airport Elevation : 3782 ft
- IATA code : OZZ


GMMZ - Ouarzazate Int.

CURRENT METAR :
  • 101300Z 10008KT 050V130 CAVOK 37/M04 Q1016 NOSIG RMK 000 000 00

EXPIRED METARs :
  • 101200Z 10007KT CAVOK 37/M02 Q1017 NOSIG
  • 101100Z 11003KT 060V180 CAVOK 35/M03 Q1020 NOSIG

TAF TAF GMMZ
Valid from the 10 at 12:00 until the 11 at 18:00 UTC


101100Z 1012/1118 18008KT CAVOK



MET'MAP, your aeronautical weather chart ! - Copyright ORBIFLY December 2007 - Disclaimer

ORBIFLY MET'MAP TEAM :

Programming & Development : Alexandra Zaïnal
Concept & original design : Baudouin d'Aumeries
Assistance for programming : Marc-Olivier Méhu
Technical & hardware support : Manuel Goepfert

Contact : metmap@orbifly.com




SOURCES & CREDITS :

   NOAA